Terminal Aerodrome Forecast
Issued by NWS Paducah, KY

Home | Current Version | Previous Version | Text Only | Print | Product List | Glossary On
Versions: 1 2 3 4 5 6 7 8 9 10 11 12 13 14
027
FTUS43 KPAH 171357 AAA
TAFPAH
TAF AMD
KPAH 171357Z 1714/1812 20005KT P6SM -RA OVC070
     FM171600 17006KT 4SM -DZ OVC012
     FM171900 19005KT 5SM -DZ BR OVC008
     FM180800 VRB03KT 5SM -DZ BR OVC003=

USA.gov is the U.S. government's official web portal to all federal, state and local government web resources and services.